createdAt,value
2024-02-17T00:01:25.456Z,2.42
2024-02-17T00:03:53.468Z,3.17
2024-02-17T00:06:21.703Z,2.72
2024-02-17T00:08:50.124Z,3.45
2024-02-17T00:11:18.127Z,2.20
2024-02-17T00:13:46.105Z,3.10
2024-02-17T00:16:13.861Z,2.78
2024-02-17T00:18:41.930Z,3.20
2024-02-17T00:21:10.189Z,2.97
2024-02-17T00:23:38.560Z,3.03
2024-02-17T00:26:06.480Z,3.08
2024-02-17T00:28:34.356Z,3.25
2024-02-17T00:31:02.844Z,3.22
2024-02-17T00:33:32.011Z,3.47
2024-02-17T00:35:59.870Z,2.78
2024-02-17T00:38:27.724Z,2.72
2024-02-17T00:40:55.598Z,3.92
2024-02-17T00:43:23.518Z,2.83
2024-02-17T00:45:51.475Z,2.80
2024-02-17T00:48:19.646Z,3.38
2024-02-17T00:50:52.456Z,3.20
2024-02-17T00:53:25.609Z,3.20
2024-02-17T00:55:53.473Z,2.92
2024-02-17T00:58:21.390Z,3.30
2024-02-17T01:00:49.293Z,3.60
2024-02-17T01:03:17.417Z,3.30
2024-02-17T01:05:45.330Z,2.67
2024-02-17T01:08:13.113Z,3.50
2024-02-17T01:10:43.045Z,3.38
2024-02-17T01:13:11.179Z,3.40
2024-02-17T01:15:39.112Z,3.60
2024-02-17T01:18:07.290Z,2.78
2024-02-17T01:20:35.309Z,2.38
2024-02-17T01:23:03.192Z,2.92
2024-02-17T01:25:31.087Z,3.40
2024-02-17T01:27:58.885Z,2.92
2024-02-17T01:30:27.166Z,3.75
2024-02-17T01:32:55.612Z,3.05
2024-02-17T01:35:23.529Z,3.45
2024-02-17T01:37:51.494Z,2.42
2024-02-17T01:40:19.631Z,3.10
2024-02-17T01:42:47.545Z,3.38
2024-02-17T01:45:15.711Z,3.85
2024-02-17T01:47:43.772Z,3.22
2024-02-17T01:50:11.697Z,2.83
2024-02-17T01:52:40.104Z,3.25
2024-02-17T01:55:07.927Z,3.58
2024-02-17T01:57:35.850Z,2.20
2024-02-17T02:00:05.770Z,3.45
2024-02-17T02:02:33.725Z,3.60
2024-02-17T02:05:01.658Z,4.07
2024-02-17T02:07:29.566Z,3.90
2024-02-17T02:09:57.785Z,3.30
2024-02-17T02:12:25.710Z,3.10
2024-02-17T02:15:06.448Z,3.95
2024-02-17T02:17:34.505Z,3.40
2024-02-17T02:20:04.705Z,3.22
2024-02-17T02:22:32.918Z,3.50
2024-02-17T02:25:01.571Z,3.55
2024-02-17T02:27:29.448Z,2.85
2024-02-17T02:30:00.618Z,3.05
2024-02-17T02:32:29.251Z,4.00
2024-02-17T02:34:59.811Z,2.95
2024-02-17T02:37:30.943Z,3.80
2024-02-17T02:39:58.805Z,4.10
2024-02-17T02:42:26.647Z,4.20
2024-02-17T02:44:54.479Z,3.22
2024-02-17T02:47:22.315Z,3.42
2024-02-17T02:49:50.235Z,3.03
2024-02-17T02:52:18.168Z,4.00
2024-02-17T02:54:46.013Z,3.78
2024-02-17T02:57:14.392Z,3.67
2024-02-17T02:59:42.337Z,2.92
2024-02-17T03:02:10.237Z,3.80
2024-02-17T03:04:38.212Z,3.25
2024-02-17T03:07:06.474Z,2.10
2024-02-17T03:09:34.502Z,4.07
2024-02-17T03:12:02.301Z,3.22
2024-02-17T03:14:30.210Z,3.58
2024-02-17T03:16:58.025Z,2.97
2024-02-17T03:19:26.138Z,3.38
2024-02-17T03:21:54.072Z,2.97
2024-02-17T03:24:21.922Z,3.40
2024-02-17T03:26:49.883Z,4.25
2024-02-17T03:29:17.952Z,4.20
2024-02-17T03:31:46.221Z,2.40
2024-02-17T03:34:14.579Z,3.97
2024-02-17T03:36:42.637Z,3.45
2024-02-17T03:39:10.783Z,2.92
2024-02-17T03:41:38.567Z,4.28
2024-02-17T03:44:06.601Z,3.85
2024-02-17T03:46:34.484Z,3.50
2024-02-17T03:49:02.498Z,5.60
2024-02-17T03:51:30.512Z,4.60
2024-02-17T03:53:58.321Z,6.18
2024-02-17T03:56:26.318Z,5.35
2024-02-17T03:58:54.542Z,3.45
2024-02-17T04:01:22.722Z,3.70
2024-02-17T04:03:50.663Z,3.42
2024-02-17T04:06:18.790Z,3.97
2024-02-17T04:08:46.667Z,2.63
2024-02-17T04:11:14.554Z,3.50
2024-02-17T04:13:42.394Z,3.13
2024-02-17T04:16:10.481Z,3.58
2024-02-17T04:18:41.609Z,3.83
2024-02-17T04:21:09.675Z,4.07
2024-02-17T04:23:37.585Z,3.63
2024-02-17T04:26:07.740Z,6.75
2024-02-17T04:28:36.535Z,6.82
2024-02-17T04:31:07.475Z,7.60
2024-02-17T04:33:41.353Z,4.95
2024-02-17T04:36:09.527Z,6.93
2024-02-17T04:38:37.534Z,4.40
2024-02-17T04:41:05.393Z,3.90
2024-02-17T04:43:33.386Z,5.10
2024-02-17T04:46:01.278Z,3.97
2024-02-17T04:48:29.080Z,3.42
2024-02-17T04:50:56.927Z,3.92
2024-02-17T04:53:24.852Z,4.68
2024-02-17T04:55:52.698Z,4.00
2024-02-17T04:58:20.555Z,4.40
2024-02-17T05:00:49.261Z,4.20
2024-02-17T05:03:17.814Z,4.63
2024-02-17T05:05:46.013Z,4.68
2024-02-17T05:08:13.887Z,4.95
2024-02-17T05:10:41.697Z,5.78
2024-02-17T05:13:09.586Z,6.78
2024-02-17T05:15:37.550Z,5.40
2024-02-17T05:18:05.514Z,4.95
2024-02-17T05:20:33.364Z,5.68
2024-02-17T05:23:01.267Z,5.47
2024-02-17T05:25:29.238Z,5.22
2024-02-17T05:27:57.141Z,5.57
2024-02-17T05:30:25.530Z,4.90
2024-02-17T05:32:56.366Z,4.57
2024-02-17T05:35:24.157Z,4.28
2024-02-17T05:37:51.859Z,4.68
2024-02-17T05:40:19.734Z,6.28
2024-02-17T05:42:47.642Z,6.53
2024-02-17T05:45:15.577Z,5.00
2024-02-17T05:47:43.565Z,5.45
2024-02-17T05:50:11.989Z,4.28
2024-02-17T05:52:41.481Z,4.60
2024-02-17T05:55:09.605Z,4.45
2024-02-17T05:57:37.509Z,4.20
2024-02-17T06:00:05.538Z,4.63
2024-02-17T06:02:34.589Z,4.75
2024-02-17T06:05:03.545Z,5.45
2024-02-17T06:07:31.546Z,4.32
2024-02-17T06:09:59.511Z,4.35
2024-02-17T06:12:27.527Z,4.35
2024-02-17T06:14:55.338Z,4.78
2024-02-17T06:17:28.866Z,4.40
2024-02-17T06:20:15.218Z,5.32
2024-02-17T06:22:43.139Z,5.55
2024-02-17T06:25:11.378Z,5.95
2024-02-17T06:27:39.265Z,6.05
2024-02-17T06:30:12.927Z,5.72
2024-02-17T06:32:41.379Z,7.75
2024-02-17T06:35:09.513Z,4.30
2024-02-17T06:37:37.541Z,7.35
2024-02-17T06:40:05.560Z,7.78
2024-02-17T06:42:33.490Z,6.38
2024-02-17T06:45:03.319Z,5.70
2024-02-17T06:47:31.203Z,6.13
2024-02-17T06:49:59.068Z,5.50
2024-02-17T06:52:26.977Z,5.72
2024-02-17T06:54:54.904Z,5.80
2024-02-17T06:57:22.856Z,6.30
2024-02-17T06:59:50.668Z,5.20
2024-02-17T07:02:24.760Z,4.80
2024-02-17T07:04:53.668Z,7.25
2024-02-17T07:07:22.125Z,7.00
2024-02-17T07:09:50.034Z,6.93
2024-02-17T07:12:18.377Z,6.90
2024-02-17T07:14:46.180Z,7.30
2024-02-17T07:17:14.076Z,6.88
2024-02-17T07:19:42.101Z,7.72
2024-02-17T07:22:10.072Z,6.45
2024-02-17T07:24:37.841Z,6.72
2024-02-17T07:27:06.245Z,6.00
2024-02-17T07:29:37.992Z,5.55
2024-02-17T07:32:06.103Z,6.35
2024-02-17T07:34:34.179Z,6.57
2024-02-17T07:37:04.181Z,6.60
2024-02-17T07:39:31.837Z,6.07
2024-02-17T07:41:59.677Z,7.20
2024-02-17T07:44:27.437Z,7.25
2024-02-17T07:46:55.220Z,6.70
2024-02-17T07:49:23.213Z,7.10
2024-02-17T07:51:51.138Z,7.07
2024-02-17T07:54:18.849Z,6.20
2024-02-17T07:56:46.735Z,7.60
2024-02-17T07:59:14.619Z,5.43
2024-02-17T08:01:42.515Z,5.95
2024-02-17T08:04:10.601Z,5.72
2024-02-17T08:06:38.652Z,7.55
2024-02-17T08:09:07.742Z,7.15
2024-02-17T08:11:36.713Z,8.10
2024-02-17T08:14:08.888Z,8.73
2024-02-17T08:16:36.763Z,6.97
2024-02-17T08:19:04.598Z,7.57
2024-02-17T08:21:33.152Z,9.07
2024-02-17T08:24:01.152Z,8.38
2024-02-17T08:26:29.009Z,7.05
2024-02-17T08:28:56.874Z,8.13
2024-02-17T08:31:25.199Z,6.53
2024-02-17T08:33:53.211Z,7.10
2024-02-17T08:36:21.083Z,5.85
2024-02-17T08:38:48.866Z,6.38
2024-02-17T08:41:20.843Z,6.03
2024-02-17T08:43:51.943Z,6.47
2024-02-17T08:46:19.870Z,6.03
2024-02-17T08:48:48.078Z,7.25
2024-02-17T08:51:16.676Z,6.80
2024-02-17T08:53:44.546Z,5.88
2024-02-17T08:56:12.503Z,7.05
2024-02-17T08:58:40.164Z,5.95
2024-02-17T09:01:08.342Z,6.00
2024-02-17T09:03:36.308Z,6.40
2024-02-17T09:06:04.204Z,8.70
2024-02-17T09:08:32.042Z,7.63
2024-02-17T09:10:59.998Z,7.63
2024-02-17T09:13:28.070Z,7.82
2024-02-17T09:15:56.320Z,6.60
2024-02-17T09:18:25.070Z,5.70
2024-02-17T09:20:53.118Z,7.00
2024-02-17T09:23:21.068Z,9.27
2024-02-17T09:25:49.267Z,6.43
2024-02-17T09:28:17.129Z,7.03
2024-02-17T09:30:46.246Z,6.50
2024-02-17T09:33:14.847Z,6.35
2024-02-17T09:35:42.713Z,6.47
2024-02-17T09:38:10.527Z,8.00
2024-02-17T09:40:38.488Z,6.25
2024-02-17T09:43:06.415Z,8.30
2024-02-17T09:45:34.223Z,7.20
2024-02-17T09:48:02.342Z,8.02
2024-02-17T09:50:30.795Z,6.65
2024-02-17T09:52:58.608Z,7.68
2024-02-17T09:55:26.474Z,7.10
2024-02-17T09:57:55.720Z,8.18
2024-02-17T10:00:23.961Z,7.78
2024-02-17T10:02:53.699Z,7.60
2024-02-17T10:05:28.847Z,6.47
2024-02-17T10:07:56.861Z,6.82
2024-02-17T10:10:25.111Z,7.28
2024-02-17T10:12:52.801Z,7.53
2024-02-17T10:15:21.378Z,7.22
2024-02-17T10:17:50.506Z,7.10
2024-02-17T10:20:18.485Z,6.63
2024-02-17T10:22:46.770Z,7.03
2024-02-17T10:25:14.818Z,8.73
2024-02-17T10:27:43.589Z,7.25
2024-02-17T10:30:15.482Z,7.25
2024-02-17T10:32:43.901Z,6.13
2024-02-17T10:35:12.412Z,7.70
2024-02-17T10:37:40.987Z,6.53
2024-02-17T10:40:09.969Z,7.28
2024-02-17T10:42:37.893Z,7.82
2024-02-17T10:45:06.317Z,8.55
2024-02-17T10:47:37.484Z,10.68
2024-02-17T10:50:17.263Z,12.02
2024-02-17T10:52:56.253Z,13.00
2024-02-17T10:55:28.836Z,12.38
2024-02-17T10:58:05.860Z,12.10
2024-02-17T11:00:34.100Z,8.30
2024-02-17T11:03:06.410Z,8.27
2024-02-17T11:05:35.670Z,9.48
2024-02-17T11:08:03.995Z,8.75
2024-02-17T11:10:32.306Z,9.73
2024-02-17T11:13:01.492Z,7.97
2024-02-17T11:15:32.728Z,9.73
2024-02-17T11:18:03.131Z,10.15
2024-02-17T11:20:31.203Z,10.82
2024-02-17T11:22:59.996Z,9.18
2024-02-17T11:25:45.231Z,9.27
2024-02-17T11:28:15.961Z,9.68
2024-02-17T11:30:51.587Z,9.82
2024-02-17T11:33:23.759Z,10.25
2024-02-17T11:35:52.416Z,9.95
2024-02-17T11:38:26.063Z,8.75
2024-02-17T11:40:57.358Z,10.55
2024-02-17T11:43:28.991Z,12.30
2024-02-17T11:45:57.705Z,11.43
2024-02-17T11:48:30.191Z,11.57
2024-02-17T11:51:15.329Z,14.27
2024-02-17T11:53:43.352Z,12.85
2024-02-17T11:56:12.438Z,15.68
2024-02-17T11:58:40.525Z,14.32
2024-02-17T12:01:10.272Z,14.63
2024-02-17T12:03:38.349Z,14.80
2024-02-17T12:06:08.003Z,14.35
2024-02-17T12:08:37.358Z,16.17
2024-02-17T12:11:05.501Z,12.85
2024-02-17T12:13:33.543Z,12.00
2024-02-17T12:16:09.343Z,15.52
2024-02-17T12:18:44.125Z,11.57
2024-02-17T12:21:12.952Z,9.45
2024-02-17T12:23:42.414Z,16.02
2024-02-17T12:26:17.337Z,11.45
2024-02-17T12:31:22.486Z,10.25
2024-02-17T12:33:51.945Z,11.35
2024-02-17T12:36:24.103Z,11.50
2024-02-17T12:39:09.132Z,12.13
2024-02-17T12:41:36.959Z,11.52
2024-02-17T12:44:04.853Z,11.63
2024-02-17T12:46:32.740Z,7.47
2024-02-17T12:49:01.212Z,11.68
2024-02-17T12:51:30.235Z,14.32
2024-02-17T12:53:59.943Z,14.13
2024-02-17T12:56:28.104Z,13.52
2024-02-17T12:59:00.358Z,15.52
2024-02-17T13:01:28.722Z,12.88
2024-02-17T13:03:56.639Z,11.23
2024-02-17T13:06:25.836Z,11.85
2024-02-17T13:08:57.347Z,13.90
2024-02-17T13:11:26.725Z,9.32
2024-02-17T13:13:54.594Z,11.68
2024-02-17T13:16:22.472Z,10.05
2024-02-17T13:18:50.626Z,8.60
2024-02-17T13:21:19.586Z,15.35
2024-02-17T13:23:47.510Z,13.68
2024-02-17T13:26:16.680Z,10.55
2024-02-17T13:28:44.713Z,8.48
2024-02-17T13:31:14.534Z,6.80
2024-02-17T13:33:43.491Z,5.95
2024-02-17T13:36:11.498Z,4.28
2024-02-17T13:38:41.104Z,4.10
2024-02-17T13:41:08.973Z,6.10
2024-02-17T13:43:36.673Z,7.63
2024-02-17T13:46:13.588Z,7.10
2024-02-17T13:48:41.567Z,6.03
2024-02-17T13:51:09.655Z,6.55
2024-02-17T13:53:37.961Z,5.28
2024-02-17T13:56:05.978Z,9.30
2024-02-17T13:58:33.935Z,6.68
2024-02-17T14:01:04.095Z,7.05
2024-02-17T14:03:33.956Z,14.57
2024-02-17T14:06:10.544Z,4.82
2024-02-17T14:08:38.629Z,3.95
2024-02-17T14:11:06.479Z,4.13
2024-02-17T14:13:34.507Z,6.00
2024-02-17T14:16:02.363Z,7.65
2024-02-17T14:18:30.562Z,11.65
2024-02-17T14:21:01.028Z,15.43
2024-02-17T14:23:29.022Z,14.98
2024-02-17T14:25:56.805Z,8.80
2024-02-17T14:28:25.844Z,10.60
2024-02-17T14:30:57.701Z,8.40
2024-02-17T14:33:25.795Z,11.52
2024-02-17T14:35:55.007Z,5.47
2024-02-17T14:38:28.758Z,1.90
2024-02-17T14:40:56.658Z,1.63
2024-02-17T14:43:24.462Z,2.13
2024-02-17T14:45:52.278Z,1.50
2024-02-17T14:48:20.554Z,1.85
2024-02-17T14:50:48.641Z,2.15
2024-02-17T14:53:16.717Z,2.30
2024-02-17T14:55:44.527Z,0.82
2024-02-17T14:58:12.738Z,0.30
2024-02-17T15:00:43.535Z,1.52
2024-02-17T15:03:12.308Z,4.22
2024-02-17T15:05:40.605Z,5.68
2024-02-17T15:08:08.833Z,2.88
2024-02-17T15:10:36.891Z,1.33
2024-02-17T15:13:06.459Z,4.40
2024-02-17T15:15:34.510Z,2.08
2024-02-17T15:18:04.136Z,1.67
2024-02-17T15:20:32.070Z,2.63
2024-02-17T15:23:00.165Z,4.32
2024-02-17T15:25:28.057Z,1.98
2024-02-17T15:27:56.919Z,2.53
2024-02-17T15:30:27.309Z,5.18
2024-02-17T15:32:55.733Z,5.88
2024-02-17T15:35:23.825Z,3.55
2024-02-17T15:37:51.780Z,3.08
2024-02-17T15:40:21.014Z,1.70
2024-02-17T15:42:49.059Z,0.13
2024-02-17T15:45:16.879Z,1.63
2024-02-17T15:47:47.042Z,1.40
2024-02-17T15:50:14.946Z,0.30
2024-02-17T15:52:42.718Z,2.40
2024-02-17T15:55:12.918Z,0.82
2024-02-17T15:57:41.537Z,0.47
2024-02-17T16:00:13.033Z,0.68
2024-02-17T16:02:41.209Z,1.80
2024-02-17T16:05:09.751Z,1.60
2024-02-17T16:07:37.749Z,1.70
2024-02-17T16:10:05.778Z,1.45
2024-02-17T16:12:34.155Z,0.22
2024-02-17T16:15:04.030Z,0.10
2024-02-17T16:17:32.221Z,0.60
2024-02-17T16:20:03.152Z,0.73
2024-02-17T16:22:30.694Z,0.40
2024-02-17T16:24:58.946Z,0.40
2024-02-17T16:27:26.779Z,0.57
2024-02-17T16:29:55.129Z,0.57
2024-02-17T16:32:22.987Z,0.50
2024-02-17T16:34:51.566Z,0.40
2024-02-17T16:37:19.301Z,0.80
2024-02-17T16:39:49.165Z,0.60
2024-02-17T16:42:17.102Z,0.43
2024-02-17T16:44:44.707Z,0.40
2024-02-17T16:47:13.471Z,0.40
2024-02-17T16:49:41.527Z,0.60
2024-02-17T16:52:09.683Z,0.75
2024-02-17T16:54:37.456Z,0.65
2024-02-17T16:57:08.773Z,0.75
2024-02-17T16:59:41.790Z,0.80
2024-02-17T17:02:09.549Z,0.82
2024-02-17T17:04:37.256Z,0.65
2024-02-17T17:07:09.387Z,0.70
2024-02-17T17:09:37.797Z,0.98
2024-02-17T17:12:08.647Z,0.43
2024-02-17T17:14:37.165Z,1.08
2024-02-17T17:17:05.078Z,1.10
2024-02-17T17:19:33.169Z,1.08
2024-02-17T17:22:01.058Z,0.40
2024-02-17T17:24:29.235Z,0.45
2024-02-17T17:26:57.217Z,0.60
2024-02-17T17:29:25.430Z,0.70
2024-02-17T17:31:53.775Z,0.40
2024-02-17T17:34:21.636Z,0.43
2024-02-17T17:36:49.445Z,0.70
2024-02-17T17:39:17.345Z,0.43
2024-02-17T17:41:45.271Z,0.43
2024-02-17T17:44:14.349Z,0.50
2024-02-17T17:46:42.213Z,0.70
2024-02-17T17:49:10.951Z,0.63
2024-02-17T17:51:38.784Z,1.08
2024-02-17T17:54:06.828Z,0.38
2024-02-17T17:56:35.983Z,0.60
2024-02-17T17:59:04.147Z,0.60
2024-02-17T18:01:31.942Z,0.77
2024-02-17T18:04:00.612Z,0.30
2024-02-17T18:06:28.909Z,0.50
2024-02-17T18:08:58.486Z,0.35
2024-02-17T18:11:26.217Z,0.40
2024-02-17T18:13:54.208Z,0.15
2024-02-17T18:16:21.976Z,0.50
2024-02-17T18:18:49.590Z,0.70
2024-02-17T18:21:17.590Z,0.60
2024-02-17T18:23:46.917Z,0.43
2024-02-17T18:26:14.555Z,0.55
2024-02-17T18:28:42.249Z,0.40
2024-02-17T18:31:10.962Z,0.32
2024-02-17T18:33:44.352Z,0.28
2024-02-17T18:36:18.570Z,0.30
2024-02-17T18:38:48.309Z,0.20
2024-02-17T18:41:16.483Z,0.40
2024-02-17T18:43:44.692Z,0.30
2024-02-17T18:46:12.647Z,0.50
2024-02-17T18:48:40.505Z,0.40
2024-02-17T18:51:08.486Z,0.28
2024-02-17T18:53:40.878Z,0.20
2024-02-17T18:56:09.095Z,0.30
2024-02-17T18:58:36.956Z,0.45
2024-02-17T19:01:04.725Z,0.50
2024-02-17T19:03:32.937Z,0.40
2024-02-17T19:06:00.618Z,0.40
2024-02-17T19:08:28.450Z,0.30
2024-02-17T19:10:56.272Z,0.20
2024-02-17T19:13:24.360Z,0.20
2024-02-17T19:15:52.345Z,0.30
2024-02-17T19:18:20.225Z,0.25
2024-02-17T19:20:51.014Z,0.30
2024-02-17T19:23:20.866Z,0.35
2024-02-17T19:25:49.350Z,0.30
2024-02-17T19:28:17.636Z,0.30
2024-02-17T19:30:45.524Z,0.20
2024-02-17T19:33:13.947Z,0.60
2024-02-17T19:35:41.749Z,0.30
2024-02-17T19:38:09.790Z,0.40
2024-02-17T19:40:38.456Z,0.20
2024-02-17T19:43:06.512Z,0.20
2024-02-17T19:45:34.435Z,0.30
2024-02-17T19:48:02.360Z,0.15
2024-02-17T19:50:30.250Z,0.22
2024-02-17T19:52:58.042Z,0.28
2024-02-17T19:55:25.901Z,0.32
2024-02-17T19:57:53.938Z,0.50
2024-02-17T20:00:22.554Z,0.32
2024-02-17T20:02:53.862Z,0.50
2024-02-17T20:05:22.993Z,0.50
2024-02-17T20:07:50.799Z,0.73
2024-02-17T20:10:19.267Z,0.30
2024-02-17T20:12:47.826Z,0.20
2024-02-17T20:15:16.294Z,0.30
2024-02-17T20:17:46.485Z,0.25
2024-02-17T20:20:17.941Z,0.28
2024-02-17T20:22:46.814Z,0.17
2024-02-17T20:25:14.439Z,0.70
2024-02-17T20:27:42.389Z,0.40
2024-02-17T20:30:11.514Z,0.13
2024-02-17T20:32:39.519Z,0.20
2024-02-17T20:35:07.701Z,0.10
2024-02-17T20:37:35.453Z,0.10
2024-02-17T20:40:05.568Z,0.57
2024-02-17T20:42:33.541Z,0.15
2024-02-17T20:45:01.333Z,0.25
2024-02-17T20:47:29.494Z,0.20
2024-02-17T20:49:57.470Z,0.30
2024-02-17T20:52:25.415Z,0.20
2024-02-17T20:54:55.098Z,0.20
2024-02-17T20:57:24.485Z,0.15
2024-02-17T20:59:53.002Z,0.10
2024-02-17T21:02:22.138Z,0.70
2024-02-17T21:04:50.075Z,0.38
2024-02-17T21:07:18.101Z,0.13
2024-02-17T21:09:45.989Z,0.38
2024-02-17T21:12:13.886Z,0.40
2024-02-17T21:14:41.722Z,0.10
2024-02-17T21:17:10.065Z,0.00
2024-02-17T21:19:41.352Z,0.30
2024-02-17T21:22:09.207Z,0.35
2024-02-17T21:24:37.539Z,0.10
2024-02-17T21:27:05.972Z,0.17
2024-02-17T21:29:34.685Z,0.30
2024-02-17T21:32:02.535Z,0.15
2024-02-17T21:34:31.129Z,0.10
2024-02-17T21:36:59.153Z,0.40
2024-02-17T21:39:27.208Z,0.20
2024-02-17T21:41:55.307Z,0.17
2024-02-17T21:44:23.085Z,0.30
2024-02-17T21:46:50.955Z,0.65
2024-02-17T21:49:19.048Z,0.20
2024-02-17T21:51:46.791Z,0.10
2024-02-17T21:54:14.587Z,0.40
2024-02-17T21:56:42.885Z,0.20
2024-02-17T21:59:10.744Z,0.17
2024-02-17T22:01:39.832Z,0.25
2024-02-17T22:04:10.353Z,0.30
2024-02-17T22:06:38.169Z,0.50
2024-02-17T22:09:05.884Z,0.30
2024-02-17T22:11:34.047Z,0.40
2024-02-17T22:14:01.897Z,0.13
2024-02-17T22:16:29.739Z,0.40
2024-02-17T22:18:57.988Z,0.20
2024-02-17T22:21:26.092Z,0.20
2024-02-17T22:23:54.924Z,0.20
2024-02-17T22:26:22.822Z,0.22
2024-02-17T22:28:50.727Z,0.10
2024-02-17T22:31:26.418Z,0.28
2024-02-17T22:33:54.400Z,0.20
2024-02-17T22:36:22.336Z,0.20
2024-02-17T22:38:50.337Z,0.10
2024-02-17T22:41:18.296Z,0.25
2024-02-17T22:43:46.022Z,0.30
2024-02-17T22:46:15.522Z,0.10
2024-02-17T22:48:43.775Z,0.30
2024-02-17T22:51:11.576Z,0.30
2024-02-17T22:53:39.445Z,0.40
2024-02-17T22:56:07.416Z,0.38
2024-02-17T22:58:35.203Z,0.30
2024-02-17T23:01:03.189Z,0.30
2024-02-17T23:03:31.016Z,0.35
2024-02-17T23:05:58.866Z,0.30
2024-02-17T23:08:26.671Z,0.10
2024-02-17T23:10:54.512Z,0.20
2024-02-17T23:13:23.942Z,0.22
2024-02-17T23:15:51.779Z,0.10
2024-02-17T23:18:19.742Z,0.20
2024-02-17T23:20:47.618Z,0.20
2024-02-17T23:23:15.372Z,0.43
2024-02-17T23:25:43.068Z,0.20
2024-02-17T23:28:10.938Z,0.10
2024-02-17T23:30:38.946Z,0.00
2024-02-17T23:33:07.661Z,0.25
2024-02-17T23:35:35.766Z,0.20
2024-02-17T23:38:03.581Z,0.10
2024-02-17T23:40:31.395Z,0.20
2024-02-17T23:42:59.096Z,0.20
2024-02-17T23:45:27.064Z,0.20
2024-02-17T23:47:54.827Z,0.15
2024-02-17T23:50:22.662Z,0.28
2024-02-17T23:52:50.511Z,0.20
2024-02-17T23:55:18.447Z,0.20
2024-02-17T23:57:46.171Z,0.10
